createdAt,value
2022-11-15T00:00:27.363Z,5.20
2022-11-15T00:03:52.322Z,5.15
2022-11-15T00:07:33.155Z,5.22
2022-11-15T00:11:01.411Z,5.40
2022-11-15T00:14:22.371Z,5.00
2022-11-15T00:17:43.328Z,5.50
2022-11-15T00:21:10.656Z,5.43
2022-11-15T00:24:31.643Z,4.80
2022-11-15T00:27:56.841Z,5.78
2022-11-15T00:31:17.509Z,5.40
2022-11-15T00:34:38.288Z,4.93
2022-11-15T00:37:59.025Z,4.53
2022-11-15T00:41:19.921Z,4.68
2022-11-15T00:44:40.966Z,4.97
2022-11-15T00:48:01.479Z,5.00
2022-11-15T00:51:22.645Z,5.13
2022-11-15T00:54:43.382Z,5.30
2022-11-15T00:58:04.472Z,4.70
2022-11-15T01:01:25.424Z,4.57
2022-11-15T01:04:46.241Z,4.80
2022-11-15T01:08:06.993Z,4.93
2022-11-15T01:11:27.826Z,5.72
2022-11-15T01:14:48.650Z,4.78
2022-11-15T01:18:10.217Z,5.45
2022-11-15T01:21:31.026Z,4.70
2022-11-15T01:24:51.906Z,4.87
2022-11-15T01:28:12.789Z,4.88
2022-11-15T01:31:33.381Z,4.60
2022-11-15T01:34:54.214Z,5.35
2022-11-15T01:38:14.923Z,4.83
2022-11-15T01:41:35.824Z,5.03
2022-11-15T01:44:56.819Z,4.72
2022-11-15T01:48:17.619Z,4.80
2022-11-15T01:51:39.064Z,4.70
2022-11-15T01:55:10.836Z,5.00
2022-11-15T01:58:32.372Z,5.70
2022-11-15T02:01:53.539Z,5.22
2022-11-15T02:05:14.210Z,4.95
2022-11-15T02:08:34.952Z,4.95
2022-11-15T02:11:56.942Z,4.57
2022-11-15T02:15:17.578Z,4.70
2022-11-15T02:18:47.650Z,4.60
2022-11-15T02:22:11.475Z,4.63
2022-11-15T02:25:44.004Z,4.75
2022-11-15T02:29:11.361Z,4.70
2022-11-15T02:32:43.617Z,4.40
2022-11-15T02:36:13.432Z,4.85
2022-11-15T02:39:57.281Z,4.95
2022-11-15T02:43:44.926Z,4.78
2022-11-15T02:47:14.793Z,4.83
2022-11-15T02:50:35.599Z,4.50
2022-11-15T02:53:56.107Z,4.85
2022-11-15T02:57:21.000Z,4.70
2022-11-15T03:01:10.680Z,5.55
2022-11-15T03:04:54.917Z,5.10
2022-11-15T03:08:27.285Z,5.03
2022-11-15T03:11:56.530Z,4.80
2022-11-15T03:15:24.883Z,4.88
2022-11-15T03:18:51.307Z,4.50
2022-11-15T03:22:16.926Z,4.87
2022-11-15T03:25:44.673Z,4.20
2022-11-15T03:29:17.365Z,5.03
2022-11-15T03:33:11.660Z,5.00
2022-11-15T03:36:34.565Z,4.63
2022-11-15T03:39:55.177Z,4.17
2022-11-15T03:43:36.725Z,4.83
2022-11-15T03:47:25.491Z,4.00
2022-11-15T03:50:47.132Z,4.90
2022-11-15T03:54:08.109Z,4.88
2022-11-15T03:57:29.313Z,4.87
2022-11-15T04:00:50.406Z,4.77
2022-11-15T04:04:11.338Z,4.78
2022-11-15T04:07:32.158Z,4.75
2022-11-15T04:10:53.277Z,4.95
2022-11-15T04:14:14.236Z,5.03
2022-11-15T04:17:36.961Z,4.20
2022-11-15T04:21:16.552Z,4.82
2022-11-15T04:24:37.510Z,4.15
2022-11-15T04:27:58.337Z,3.72
2022-11-15T04:31:19.237Z,4.67
2022-11-15T04:34:39.925Z,5.00
2022-11-15T04:38:02.331Z,4.38
2022-11-15T04:41:23.267Z,4.53
2022-11-15T04:44:44.008Z,4.60
2022-11-15T04:48:05.407Z,4.53
2022-11-15T04:51:26.429Z,4.50
2022-11-15T04:54:47.125Z,4.50
2022-11-15T04:58:07.944Z,4.70
2022-11-15T05:01:28.874Z,4.43
2022-11-15T05:04:49.699Z,4.00
2022-11-15T05:08:10.679Z,4.47
2022-11-15T05:11:31.622Z,4.60
2022-11-15T05:14:52.377Z,4.28
2022-11-15T05:18:13.485Z,4.45
2022-11-15T05:21:34.964Z,4.53
2022-11-15T05:24:55.513Z,5.23
2022-11-15T05:28:16.327Z,4.78
2022-11-15T05:31:41.280Z,4.32
2022-11-15T05:35:02.083Z,4.28
2022-11-15T05:38:24.287Z,4.60
2022-11-15T05:42:00.380Z,4.30
2022-11-15T05:45:26.487Z,4.78
2022-11-15T05:48:51.145Z,4.63
2022-11-15T05:52:16.432Z,4.20
2022-11-15T05:55:39.694Z,4.37
2022-11-15T05:59:00.533Z,4.50
2022-11-15T06:02:21.102Z,4.93
2022-11-15T06:05:41.981Z,4.57
2022-11-15T06:09:02.795Z,4.32
2022-11-15T06:12:23.645Z,4.43
2022-11-15T06:15:44.452Z,4.50
2022-11-15T06:19:07.547Z,3.67
2022-11-15T06:22:28.059Z,4.30
2022-11-15T06:25:49.466Z,4.60
2022-11-15T06:29:10.360Z,4.93
2022-11-15T06:32:31.740Z,4.33
2022-11-15T06:35:52.414Z,4.70
2022-11-15T06:39:13.364Z,5.10
2022-11-15T06:42:34.210Z,4.43
2022-11-15T06:45:54.972Z,4.27
2022-11-15T06:49:15.762Z,4.50
2022-11-15T06:52:36.766Z,4.40
2022-11-15T06:56:06.367Z,4.28
2022-11-15T06:59:26.927Z,4.40
2022-11-15T07:02:48.928Z,4.43
2022-11-15T07:06:10.854Z,4.10
2022-11-15T07:09:52.725Z,5.35
2022-11-15T07:13:14.679Z,4.53
2022-11-15T07:16:35.347Z,4.30
2022-11-15T07:19:56.319Z,4.53
2022-11-15T07:23:16.893Z,4.40
2022-11-15T07:26:37.673Z,4.55
2022-11-15T07:29:58.763Z,4.13
2022-11-15T07:33:19.803Z,4.90
2022-11-15T07:36:41.068Z,4.80
2022-11-15T07:40:31.009Z,4.23
2022-11-15T07:43:54.848Z,4.22
2022-11-15T07:47:15.844Z,4.45
2022-11-15T07:50:36.465Z,4.20
2022-11-15T07:58:43.507Z,4.27
2022-11-15T08:02:04.706Z,4.45
2022-11-15T08:05:25.539Z,4.22
2022-11-15T08:08:47.853Z,4.30
2022-11-15T08:12:08.683Z,4.10
2022-11-15T08:15:30.561Z,4.53
2022-11-15T08:18:51.419Z,4.50
2022-11-15T08:22:12.188Z,3.85
2022-11-15T10:41:13.958Z,6.78
2022-11-15T10:48:34.351Z,6.10
2022-11-15T10:51:47.110Z,6.53
2022-11-15T10:55:06.222Z,6.95
2022-11-15T10:58:35.754Z,8.13
2022-11-15T11:01:49.314Z,7.20
2022-11-15T11:04:55.671Z,7.47
2022-11-15T11:08:17.625Z,7.20
2022-11-15T11:11:20.840Z,7.35
2022-11-15T11:14:28.226Z,7.35
2022-11-15T11:18:33.186Z,7.72
2022-11-15T11:22:33.496Z,7.47
2022-11-15T11:26:00.739Z,7.80
2022-11-15T11:29:24.336Z,7.53
2022-11-15T11:33:35.481Z,7.15
2022-11-15T11:37:21.419Z,7.28
2022-11-15T11:40:38.803Z,7.80
2022-11-15T11:43:58.066Z,8.00
2022-11-15T11:51:19.077Z,7.65
2022-11-15T11:54:21.541Z,8.38
2022-11-15T11:58:06.007Z,8.27
2022-11-15T12:01:32.799Z,8.30
2022-11-15T12:13:50.361Z,8.57
2022-11-15T12:16:52.581Z,8.60
2022-11-15T12:19:59.695Z,8.93
2022-11-15T12:23:14.126Z,8.40
2022-11-15T12:26:30.111Z,8.63
2022-11-15T12:29:40.701Z,9.57
2022-11-15T12:33:29.253Z,8.03
2022-11-15T12:36:40.993Z,9.17
2022-11-15T12:40:26.727Z,9.02
2022-11-15T12:43:41.173Z,8.88
2022-11-15T12:46:43.298Z,9.50
2022-11-15T12:49:46.991Z,8.80
2022-11-15T12:53:24.520Z,9.47
2022-11-15T12:56:26.824Z,8.60
2022-11-15T12:59:51.111Z,9.57
2022-11-15T13:03:26.059Z,8.90
2022-11-15T13:06:57.523Z,9.33
2022-11-15T13:09:59.880Z,9.03
2022-11-15T13:13:12.322Z,9.45
2022-11-15T13:16:24.242Z,9.38
2022-11-15T13:19:27.393Z,9.77
2022-11-15T13:22:52.503Z,8.90
2022-11-15T13:26:29.370Z,9.53
2022-11-15T13:29:31.700Z,10.43
2022-11-15T13:32:34.040Z,8.73
2022-11-15T13:35:40.937Z,9.90
2022-11-15T13:38:44.400Z,9.13
2022-11-15T13:41:50.477Z,10.03
2022-11-15T13:45:01.085Z,10.15
2022-11-15T13:48:04.425Z,9.50
2022-11-15T13:51:21.759Z,9.63
2022-11-15T13:55:11.460Z,9.97
2022-11-15T13:58:14.603Z,9.40
2022-11-15T14:01:21.714Z,10.73
2022-11-15T14:04:26.382Z,9.85
2022-11-15T14:07:33.580Z,10.75
2022-11-15T14:10:38.468Z,8.87
2022-11-15T14:13:40.945Z,10.20
2022-11-15T14:16:45.828Z,9.60
2022-11-15T14:19:48.290Z,9.43
2022-11-15T14:22:58.883Z,9.98
2022-11-15T14:26:01.267Z,9.83
2022-11-15T14:29:29.789Z,9.73
2022-11-15T14:32:50.485Z,9.15
2022-11-15T14:35:58.207Z,9.27
2022-11-15T14:39:00.731Z,10.88
2022-11-15T14:42:02.924Z,9.87
2022-11-15T14:45:22.644Z,10.37
2022-11-15T14:48:24.828Z,11.10
2022-11-15T14:51:27.274Z,11.02
2022-11-15T14:54:29.506Z,9.65
2022-11-15T14:57:31.941Z,9.93
2022-11-15T15:00:35.759Z,10.00
2022-11-15T15:03:38.115Z,10.20
2022-11-15T15:06:40.806Z,10.82
2022-11-15T15:09:43.275Z,11.93
2022-11-15T15:12:46.085Z,12.63
2022-11-15T15:15:49.599Z,12.50
2022-11-15T15:18:52.035Z,14.18
2022-11-15T15:21:54.310Z,14.23
2022-11-15T15:24:56.518Z,14.27
2022-11-15T15:27:58.887Z,15.07
2022-11-15T15:31:01.083Z,15.20
2022-11-15T15:34:03.374Z,15.07
2022-11-15T15:37:25.683Z,14.63
2022-11-15T15:40:31.913Z,14.13
2022-11-15T15:43:34.101Z,14.27
2022-11-15T15:46:36.426Z,15.20
2022-11-15T15:49:38.858Z,14.27
2022-11-15T15:52:41.213Z,14.10
2022-11-15T15:55:43.556Z,15.07
2022-11-15T15:58:45.743Z,14.73
2022-11-15T16:01:48.105Z,14.77
2022-11-15T16:04:50.505Z,13.70
2022-11-15T16:07:52.784Z,14.35
2022-11-15T16:10:55.093Z,14.95
2022-11-15T16:13:57.384Z,14.50
2022-11-15T16:16:59.584Z,14.17
2022-11-15T16:20:02.459Z,15.25
2022-11-15T16:23:09.653Z,14.70
2022-11-15T16:26:23.232Z,14.88
2022-11-15T16:29:25.898Z,14.60
2022-11-15T16:32:28.222Z,14.63
2022-11-15T16:35:30.419Z,14.75
2022-11-15T16:38:33.011Z,13.85
2022-11-15T16:41:35.343Z,15.52
2022-11-15T16:44:37.529Z,14.67
2022-11-15T16:47:40.068Z,14.63
2022-11-15T16:50:43.042Z,14.10
2022-11-15T16:53:45.548Z,15.20
2022-11-15T16:56:48.338Z,14.88
2022-11-15T16:59:50.514Z,14.30
2022-11-15T17:02:53.525Z,15.07
2022-11-15T17:05:59.443Z,14.25
2022-11-15T17:09:01.631Z,14.77
2022-11-15T17:12:04.060Z,14.40
2022-11-15T17:15:06.779Z,13.43
2022-11-15T17:18:12.349Z,14.57
2022-11-15T17:21:17.158Z,14.35
2022-11-15T17:24:21.039Z,14.38
2022-11-15T17:27:23.843Z,14.93
2022-11-15T17:30:26.900Z,14.20
2022-11-15T17:33:29.207Z,13.47
2022-11-15T17:36:31.812Z,14.80
2022-11-15T17:39:34.005Z,14.23
2022-11-15T17:42:36.230Z,14.13
2022-11-15T17:45:41.805Z,14.67
2022-11-15T17:48:45.431Z,14.50
2022-11-15T17:51:50.076Z,15.43
2022-11-15T17:54:52.523Z,14.80
2022-11-15T17:57:54.710Z,14.18
2022-11-15T18:01:07.598Z,15.03
2022-11-15T18:04:10.115Z,15.07
2022-11-15T18:07:14.040Z,14.43
2022-11-15T18:10:16.720Z,14.75
2022-11-15T18:13:20.089Z,14.68
2022-11-15T18:16:27.365Z,14.23
2022-11-15T18:19:29.567Z,14.10
2022-11-15T18:22:32.042Z,14.90
2022-11-15T18:25:34.330Z,14.38
2022-11-15T18:28:39.042Z,13.68
2022-11-15T18:31:47.416Z,15.17
2022-11-15T18:34:50.061Z,14.57
2022-11-15T18:37:52.332Z,14.57
2022-11-15T18:40:54.552Z,13.85
2022-11-15T18:44:01.017Z,14.55
2022-11-15T18:47:03.575Z,13.27
2022-11-15T18:50:06.293Z,14.00
2022-11-15T18:53:08.463Z,13.82
2022-11-15T18:56:16.222Z,14.20
2022-11-15T18:59:18.507Z,13.35
2022-11-15T19:02:20.953Z,13.80
2022-11-15T19:05:23.328Z,13.90
2022-11-15T19:08:25.524Z,14.40
2022-11-15T19:11:35.552Z,13.30
2022-11-15T19:14:37.757Z,13.60
2022-11-15T19:17:39.954Z,13.73
2022-11-15T19:20:42.132Z,14.40
2022-11-15T19:23:44.430Z,13.57
2022-11-15T19:26:46.989Z,14.15
2022-11-15T19:29:49.268Z,13.27
2022-11-15T19:32:51.839Z,14.17
2022-11-15T19:36:03.552Z,13.20
2022-11-15T19:39:09.731Z,13.95
2022-11-15T19:42:12.429Z,13.40
2022-11-15T19:45:14.686Z,13.65
2022-11-15T19:48:16.840Z,14.00
2022-11-15T19:51:24.597Z,13.13
2022-11-15T19:54:26.789Z,12.82
2022-11-15T19:57:28.951Z,13.13
2022-11-15T20:00:31.118Z,13.88
2022-11-15T20:03:35.270Z,12.57
2022-11-15T20:06:40.998Z,12.77
2022-11-15T20:09:43.658Z,14.00
2022-11-15T20:12:45.854Z,12.52
2022-11-15T20:15:48.063Z,11.77
2022-11-15T20:18:51.177Z,13.00
2022-11-15T20:21:53.596Z,13.47
2022-11-15T20:24:55.768Z,13.32
2022-11-15T20:27:57.967Z,12.23
2022-11-15T20:31:00.997Z,12.75
2022-11-15T20:34:03.211Z,13.13
2022-11-15T20:37:05.518Z,14.17
2022-11-15T20:40:08.251Z,12.48
2022-11-15T20:43:13.617Z,12.55
2022-11-15T20:46:15.821Z,12.75
2022-11-15T20:49:18.019Z,12.60
2022-11-15T20:52:20.299Z,11.80
2022-11-15T20:55:22.515Z,13.00
2022-11-15T20:58:30.018Z,13.00
2022-11-15T21:01:32.520Z,12.57
2022-11-15T21:04:34.844Z,12.47
2022-11-15T21:07:37.093Z,12.40
2022-11-15T21:10:59.411Z,12.25
2022-11-15T21:14:06.322Z,12.93
2022-11-15T21:17:11.053Z,11.98
2022-11-15T21:20:13.431Z,12.93
2022-11-15T21:23:15.644Z,12.90
2022-11-15T21:26:17.862Z,13.25
2022-11-15T21:29:20.753Z,12.10
2022-11-15T21:32:22.969Z,13.00
2022-11-15T21:35:25.374Z,12.67
2022-11-15T21:38:28.506Z,12.87
2022-11-15T21:41:31.057Z,12.25
2022-11-15T21:44:33.324Z,11.90
2022-11-15T21:47:35.503Z,13.10
2022-11-15T21:50:37.706Z,12.10
2022-11-15T21:53:40.160Z,12.80
2022-11-15T21:56:43.268Z,12.00
2022-11-15T22:00:04.176Z,12.52
2022-11-15T22:03:06.657Z,12.45
2022-11-15T22:06:13.070Z,12.83
2022-11-15T22:09:19.567Z,12.10
2022-11-15T22:12:24.706Z,12.75
2022-11-15T22:15:30.698Z,12.50
2022-11-15T22:18:33.300Z,12.38
2022-11-15T22:21:38.031Z,12.70
2022-11-15T22:24:40.354Z,12.33
2022-11-15T22:27:42.590Z,11.95
2022-11-15T22:30:46.450Z,11.88
2022-11-15T22:33:48.780Z,12.32
2022-11-15T22:37:19.082Z,12.43
2022-11-15T22:40:13.589Z,11.93
2022-11-15T22:43:18.393Z,11.63
2022-11-15T22:46:20.647Z,11.63
2022-11-15T22:49:22.928Z,12.75
2022-11-15T22:52:25.202Z,11.97
2022-11-15T22:55:27.506Z,12.03
2022-11-15T22:58:32.531Z,12.18
2022-11-15T23:01:35.342Z,11.77
2022-11-15T23:04:37.667Z,12.15
2022-11-15T23:07:40.164Z,11.90
2022-11-15T23:11:01.053Z,12.40
2022-11-15T23:14:03.446Z,12.02
2022-11-15T23:17:05.762Z,11.30
2022-11-15T23:20:29.437Z,11.75
2022-11-15T23:23:31.124Z,12.30
2022-11-15T23:26:33.485Z,12.00
2022-11-15T23:29:57.202Z,11.65
2022-11-15T23:33:18.151Z,11.18
2022-11-15T23:36:20.416Z,11.88
2022-11-15T23:39:23.263Z,13.20
2022-11-15T23:42:25.665Z,11.80
2022-11-15T23:45:27.980Z,13.00
2022-11-15T23:48:30.580Z,12.18
2022-11-15T23:51:33.066Z,12.15
2022-11-15T23:54:35.350Z,11.70
2022-11-15T23:57:37.619Z,12.33
